sensor_id;sensor_type;location;lat;lon;timestamp;P1;durP1;ratioP1;P2;durP2;ratioP2
36799;SDS011;22752;51.960;5.886;2023-09-19T00:00:19;3.00;;;1.45;;
36799;SDS011;22752;51.960;5.886;2023-09-19T00:02:55;4.00;;;1.45;;
36799;SDS011;22752;51.960;5.886;2023-09-19T00:05:33;6.20;;;1.80;;
36799;SDS011;22752;51.960;5.886;2023-09-19T00:07:59;6.45;;;1.75;;
36799;SDS011;22752;51.960;5.886;2023-09-19T00:10:25;7.55;;;1.65;;
36799;SDS011;22752;51.960;5.886;2023-09-19T00:12:53;7.55;;;1.80;;
36799;SDS011;22752;51.960;5.886;2023-09-19T00:15:24;7.55;;;2.30;;
36799;SDS011;22752;51.960;5.886;2023-09-19T00:17:55;9.93;;;2.20;;
36799;SDS011;22752;51.960;5.886;2023-09-19T00:20:21;10.98;;;2.20;;
36799;SDS011;22752;51.960;5.886;2023-09-19T00:22:50;6.32;;;2.08;;
36799;SDS011;22752;51.960;5.886;2023-09-19T00:25:19;9.23;;;2.60;;
36799;SDS011;22752;51.960;5.886;2023-09-19T00:27:46;14.35;;;2.88;;
36799;SDS011;22752;51.960;5.886;2023-09-19T00:30:14;11.07;;;2.75;;
36799;SDS011;22752;51.960;5.886;2023-09-19T00:32:50;10.10;;;3.03;;
36799;SDS011;22752;51.960;5.886;2023-09-19T00:35:20;13.75;;;2.97;;
36799;SDS011;22752;51.960;5.886;2023-09-19T00:37:48;9.52;;;2.53;;
36799;SDS011;22752;51.960;5.886;2023-09-19T00:40:14;12.13;;;2.25;;
36799;SDS011;22752;51.960;5.886;2023-09-19T00:42:43;12.00;;;2.58;;
36799;SDS011;22752;51.960;5.886;2023-09-19T00:45:12;7.60;;;2.15;;
36799;SDS011;22752;51.960;5.886;2023-09-19T00:47:40;9.80;;;2.28;;
36799;SDS011;22752;51.960;5.886;2023-09-19T00:50:09;15.85;;;3.08;;
36799;SDS011;22752;51.960;5.886;2023-09-19T00:52:36;6.78;;;2.28;;
36799;SDS011;22752;51.960;5.886;2023-09-19T00:55:04;8.52;;;2.00;;
36799;SDS011;22752;51.960;5.886;2023-09-19T00:57:31;9.68;;;2.50;;
36799;SDS011;22752;51.960;5.886;2023-09-19T00:59:58;11.95;;;2.25;;
36799;SDS011;22752;51.960;5.886;2023-09-19T01:02:29;8.15;;;2.53;;
36799;SDS011;22752;51.960;5.886;2023-09-19T01:04:56;7.60;;;2.60;;
36799;SDS011;22752;51.960;5.886;2023-09-19T01:07:22;11.00;;;2.97;;
36799;SDS011;22752;51.960;5.886;2023-09-19T01:09:48;11.02;;;2.92;;
36799;SDS011;22752;51.960;5.886;2023-09-19T01:12:16;12.38;;;2.85;;
36799;SDS011;22752;51.960;5.886;2023-09-19T01:14:54;15.45;;;2.75;;
36799;SDS011;22752;51.960;5.886;2023-09-19T01:17:32;11.63;;;2.38;;
36799;SDS011;22752;51.960;5.886;2023-09-19T01:22:47;10.23;;;2.58;;
36799;SDS011;22752;51.960;5.886;2023-09-19T01:28:39;12.60;;;2.88;;
36799;SDS011;22752;51.960;5.886;2023-09-19T01:31:11;12.73;;;2.95;;
36799;SDS011;22752;51.960;5.886;2023-09-19T01:36:30;14.75;;;3.50;;
36799;SDS011;22752;51.960;5.886;2023-09-19T01:39:05;10.15;;;2.70;;
36799;SDS011;22752;51.960;5.886;2023-09-19T01:41:41;15.98;;;3.17;;
36799;SDS011;22752;51.960;5.886;2023-09-19T01:47:26;12.45;;;3.05;;
36799;SDS011;22752;51.960;5.886;2023-09-19T01:50:02;12.00;;;2.78;;
36799;SDS011;22752;51.960;5.886;2023-09-19T01:52:54;13.63;;;2.72;;
36799;SDS011;22752;51.960;5.886;2023-09-19T01:55:22;12.23;;;3.15;;
36799;SDS011;22752;51.960;5.886;2023-09-19T01:58:06;13.13;;;3.20;;
36799;SDS011;22752;51.960;5.886;2023-09-19T02:00:37;15.52;;;3.20;;
36799;SDS011;22752;51.960;5.886;2023-09-19T02:03:05;14.60;;;4.47;;
36799;SDS011;22752;51.960;5.886;2023-09-19T02:05:31;14.48;;;3.00;;
36799;SDS011;22752;51.960;5.886;2023-09-19T02:07:58;14.63;;;3.45;;
36799;SDS011;22752;51.960;5.886;2023-09-19T02:10:23;11.98;;;2.72;;
36799;SDS011;22752;51.960;5.886;2023-09-19T02:12:49;14.82;;;2.88;;
36799;SDS011;22752;51.960;5.886;2023-09-19T02:15:15;14.18;;;3.30;;
36799;SDS011;22752;51.960;5.886;2023-09-19T02:17:42;11.98;;;2.65;;
36799;SDS011;22752;51.960;5.886;2023-09-19T02:20:09;12.82;;;2.65;;
36799;SDS011;22752;51.960;5.886;2023-09-19T02:22:42;12.10;;;2.65;;
36799;SDS011;22752;51.960;5.886;2023-09-19T02:25:09;11.95;;;2.65;;
36799;SDS011;22752;51.960;5.886;2023-09-19T02:27:35;9.70;;;2.83;;
36799;SDS011;22752;51.960;5.886;2023-09-19T02:30:02;12.18;;;2.70;;
36799;SDS011;22752;51.960;5.886;2023-09-19T02:32:29;10.18;;;2.95;;
36799;SDS011;22752;51.960;5.886;2023-09-19T02:34:56;15.77;;;3.25;;
36799;SDS011;22752;51.960;5.886;2023-09-19T02:37:23;15.40;;;2.83;;
36799;SDS011;22752;51.960;5.886;2023-09-19T02:39:50;11.75;;;2.33;;
36799;SDS011;22752;51.960;5.886;2023-09-19T02:42:15;9.27;;;2.95;;
36799;SDS011;22752;51.960;5.886;2023-09-19T02:44:41;11.70;;;2.70;;
36799;SDS011;22752;51.960;5.886;2023-09-19T02:47:06;13.90;;;3.30;;
36799;SDS011;22752;51.960;5.886;2023-09-19T02:49:32;10.82;;;2.55;;
36799;SDS011;22752;51.960;5.886;2023-09-19T02:51:58;9.23;;;2.50;;
36799;SDS011;22752;51.960;5.886;2023-09-19T02:54:24;10.25;;;2.53;;
36799;SDS011;22752;51.960;5.886;2023-09-19T02:56:50;14.88;;;2.90;;
36799;SDS011;22752;51.960;5.886;2023-09-19T02:59:15;12.13;;;2.55;;
36799;SDS011;22752;51.960;5.886;2023-09-19T03:01:44;12.60;;;2.97;;
36799;SDS011;22752;51.960;5.886;2023-09-19T03:04:13;15.55;;;3.00;;
36799;SDS011;22752;51.960;5.886;2023-09-19T03:06:42;16.52;;;3.47;;
36799;SDS011;22752;51.960;5.886;2023-09-19T03:09:09;12.27;;;3.13;;
36799;SDS011;22752;51.960;5.886;2023-09-19T03:11:36;11.73;;;3.10;;
36799;SDS011;22752;51.960;5.886;2023-09-19T03:14:02;11.38;;;2.45;;
36799;SDS011;22752;51.960;5.886;2023-09-19T03:16:29;14.32;;;3.40;;
36799;SDS011;22752;51.960;5.886;2023-09-19T03:18:54;10.18;;;2.35;;
36799;SDS011;22752;51.960;5.886;2023-09-19T03:21:20;11.38;;;2.80;;
36799;SDS011;22752;51.960;5.886;2023-09-19T03:23:46;15.50;;;2.80;;
36799;SDS011;22752;51.960;5.886;2023-09-19T03:26:12;13.40;;;3.03;;
36799;SDS011;22752;51.960;5.886;2023-09-19T03:28:39;13.98;;;3.08;;
36799;SDS011;22752;51.960;5.886;2023-09-19T03:31:06;9.82;;;2.40;;
36799;SDS011;22752;51.960;5.886;2023-09-19T03:33:32;16.88;;;3.20;;
36799;SDS011;22752;51.960;5.886;2023-09-19T03:35:59;17.20;;;3.50;;
36799;SDS011;22752;51.960;5.886;2023-09-19T03:38:25;14.25;;;3.35;;
36799;SDS011;22752;51.960;5.886;2023-09-19T03:40:54;14.93;;;3.28;;
36799;SDS011;22752;51.960;5.886;2023-09-19T03:48:41;15.25;;;2.92;;
36799;SDS011;22752;51.960;5.886;2023-09-19T03:51:07;12.35;;;2.75;;
36799;SDS011;22752;51.960;5.886;2023-09-19T03:53:33;10.85;;;2.65;;
36799;SDS011;22752;51.960;5.886;2023-09-19T03:55:59;11.70;;;3.15;;
36799;SDS011;22752;51.960;5.886;2023-09-19T03:58:25;11.20;;;2.53;;
36799;SDS011;22752;51.960;5.886;2023-09-19T04:00:54;14.93;;;2.90;;
36799;SDS011;22752;51.960;5.886;2023-09-19T04:03:20;12.48;;;2.53;;
36799;SDS011;22752;51.960;5.886;2023-09-19T04:05:46;16.05;;;3.17;;
36799;SDS011;22752;51.960;5.886;2023-09-19T04:08:15;9.68;;;2.45;;
36799;SDS011;22752;51.960;5.886;2023-09-19T04:10:44;9.95;;;2.80;;
36799;SDS011;22752;51.960;5.886;2023-09-19T04:13:10;11.07;;;2.90;;
36799;SDS011;22752;51.960;5.886;2023-09-19T04:15:36;9.48;;;2.85;;
36799;SDS011;22752;51.960;5.886;2023-09-19T04:18:02;9.27;;;2.85;;
36799;SDS011;22752;51.960;5.886;2023-09-19T04:20:28;12.57;;;2.63;;
36799;SDS011;22752;51.960;5.886;2023-09-19T04:22:54;11.90;;;2.60;;
36799;SDS011;22752;51.960;5.886;2023-09-19T04:25:20;8.32;;;2.47;;
36799;SDS011;22752;51.960;5.886;2023-09-19T04:27:46;13.38;;;2.60;;
36799;SDS011;22752;51.960;5.886;2023-09-19T04:30:12;9.65;;;2.35;;
36799;SDS011;22752;51.960;5.886;2023-09-19T04:32:39;12.45;;;2.67;;
36799;SDS011;22752;51.960;5.886;2023-09-19T04:35:09;12.32;;;2.97;;
36799;SDS011;22752;51.960;5.886;2023-09-19T04:37:41;12.65;;;2.55;;
36799;SDS011;22752;51.960;5.886;2023-09-19T04:40:07;9.97;;;2.60;;
36799;SDS011;22752;51.960;5.886;2023-09-19T04:42:42;11.18;;;2.50;;
36799;SDS011;22752;51.960;5.886;2023-09-19T04:45:08;10.70;;;2.85;;
36799;SDS011;22752;51.960;5.886;2023-09-19T04:47:35;13.00;;;2.78;;
36799;SDS011;22752;51.960;5.886;2023-09-19T04:50:05;14.63;;;3.30;;
36799;SDS011;22752;51.960;5.886;2023-09-19T04:52:33;10.07;;;2.45;;
36799;SDS011;22752;51.960;5.886;2023-09-19T04:54:58;9.48;;;2.35;;
36799;SDS011;22752;51.960;5.886;2023-09-19T04:57:24;10.55;;;2.70;;
36799;SDS011;22752;51.960;5.886;2023-09-19T04:59:51;13.13;;;2.83;;
36799;SDS011;22752;51.960;5.886;2023-09-19T05:02:16;9.82;;;2.90;;
36799;SDS011;22752;51.960;5.886;2023-09-19T05:04:42;10.90;;;2.47;;
36799;SDS011;22752;51.960;5.886;2023-09-19T05:07:08;8.88;;;2.25;;
36799;SDS011;22752;51.960;5.886;2023-09-19T05:09:35;13.75;;;2.90;;
36799;SDS011;22752;51.960;5.886;2023-09-19T05:12:02;8.20;;;2.28;;
36799;SDS011;22752;51.960;5.886;2023-09-19T05:14:28;9.23;;;2.55;;
36799;SDS011;22752;51.960;5.886;2023-09-19T05:16:54;7.10;;;2.45;;
36799;SDS011;22752;51.960;5.886;2023-09-19T05:19:19;15.93;;;2.67;;
36799;SDS011;22752;51.960;5.886;2023-09-19T05:21:45;11.57;;;2.78;;
36799;SDS011;22752;51.960;5.886;2023-09-19T05:24:12;10.32;;;2.35;;
36799;SDS011;22752;51.960;5.886;2023-09-19T05:26:39;7.60;;;1.98;;
36799;SDS011;22752;51.960;5.886;2023-09-19T05:29:05;11.27;;;2.28;;
36799;SDS011;22752;51.960;5.886;2023-09-19T05:31:33;11.15;;;3.10;;
36799;SDS011;22752;51.960;5.886;2023-09-19T05:34:01;11.32;;;2.55;;
36799;SDS011;22752;51.960;5.886;2023-09-19T05:36:27;14.88;;;2.67;;
36799;SDS011;22752;51.960;5.886;2023-09-19T05:38:54;10.70;;;2.22;;
36799;SDS011;22752;51.960;5.886;2023-09-19T05:41:20;13.25;;;2.95;;
36799;SDS011;22752;51.960;5.886;2023-09-19T05:43:48;10.95;;;2.20;;
36799;SDS011;22752;51.960;5.886;2023-09-19T05:46:15;13.43;;;3.17;;
36799;SDS011;22752;51.960;5.886;2023-09-19T05:48:41;13.38;;;2.78;;
36799;SDS011;22752;51.960;5.886;2023-09-19T05:51:09;13.27;;;2.45;;
36799;SDS011;22752;51.960;5.886;2023-09-19T05:53:35;13.20;;;2.90;;
36799;SDS011;22752;51.960;5.886;2023-09-19T05:56:00;11.85;;;2.75;;
36799;SDS011;22752;51.960;5.886;2023-09-19T05:58:26;14.05;;;2.88;;
36799;SDS011;22752;51.960;5.886;2023-09-19T06:00:52;13.52;;;3.00;;
36799;SDS011;22752;51.960;5.886;2023-09-19T06:03:17;9.80;;;2.03;;
36799;SDS011;22752;51.960;5.886;2023-09-19T06:05:44;7.13;;;2.50;;
36799;SDS011;22752;51.960;5.886;2023-09-19T06:08:11;10.73;;;2.30;;
36799;SDS011;22752;51.960;5.886;2023-09-19T06:10:37;18.48;;;2.80;;
36799;SDS011;22752;51.960;5.886;2023-09-19T06:13:03;13.13;;;2.80;;
36799;SDS011;22752;51.960;5.886;2023-09-19T06:15:29;12.57;;;2.38;;
36799;SDS011;22752;51.960;5.886;2023-09-19T06:17:57;9.95;;;2.35;;
36799;SDS011;22752;51.960;5.886;2023-09-19T06:20:24;11.95;;;3.08;;
36799;SDS011;22752;51.960;5.886;2023-09-19T06:22:51;12.45;;;2.80;;
36799;SDS011;22752;51.960;5.886;2023-09-19T06:25:17;12.02;;;2.30;;
36799;SDS011;22752;51.960;5.886;2023-09-19T06:27:50;11.43;;;2.72;;
36799;SDS011;22752;51.960;5.886;2023-09-19T06:30:18;14.50;;;2.90;;
36799;SDS011;22752;51.960;5.886;2023-09-19T06:32:44;13.48;;;2.72;;
36799;SDS011;22752;51.960;5.886;2023-09-19T06:35:11;11.70;;;2.47;;
36799;SDS011;22752;51.960;5.886;2023-09-19T06:37:38;14.63;;;2.80;;
36799;SDS011;22752;51.960;5.886;2023-09-19T06:40:22;13.10;;;3.20;;
36799;SDS011;22752;51.960;5.886;2023-09-19T06:42:50;11.95;;;2.90;;
36799;SDS011;22752;51.960;5.886;2023-09-19T06:45:16;15.65;;;3.17;;
36799;SDS011;22752;51.960;5.886;2023-09-19T06:47:47;12.50;;;3.25;;
36799;SDS011;22752;51.960;5.886;2023-09-19T06:50:19;17.65;;;3.53;;
36799;SDS011;22752;51.960;5.886;2023-09-19T06:52:47;15.43;;;2.95;;
36799;SDS011;22752;51.960;5.886;2023-09-19T06:55:18;9.77;;;2.53;;
36799;SDS011;22752;51.960;5.886;2023-09-19T06:57:48;11.85;;;3.15;;
36799;SDS011;22752;51.960;5.886;2023-09-19T07:00:13;16.17;;;3.38;;
36799;SDS011;22752;51.960;5.886;2023-09-19T07:02:41;13.85;;;2.85;;
36799;SDS011;22752;51.960;5.886;2023-09-19T07:05:07;9.68;;;2.50;;
36799;SDS011;22752;51.960;5.886;2023-09-19T07:07:33;12.15;;;2.88;;
36799;SDS011;22752;51.960;5.886;2023-09-19T07:10:02;15.40;;;2.85;;
36799;SDS011;22752;51.960;5.886;2023-09-19T07:12:31;10.57;;;2.50;;
36799;SDS011;22752;51.960;5.886;2023-09-19T07:14:57;8.43;;;2.40;;
36799;SDS011;22752;51.960;5.886;2023-09-19T07:17:23;15.18;;;3.63;;
36799;SDS011;22752;51.960;5.886;2023-09-19T07:19:49;10.43;;;2.92;;
36799;SDS011;22752;51.960;5.886;2023-09-19T07:22:15;16.80;;;3.10;;
36799;SDS011;22752;51.960;5.886;2023-09-19T07:24:41;12.98;;;2.75;;
36799;SDS011;22752;51.960;5.886;2023-09-19T07:27:07;13.30;;;2.75;;
36799;SDS011;22752;51.960;5.886;2023-09-19T07:29:33;14.40;;;3.42;;
36799;SDS011;22752;51.960;5.886;2023-09-19T07:31:59;14.18;;;2.92;;
36799;SDS011;22752;51.960;5.886;2023-09-19T07:34:25;18.13;;;3.42;;
36799;SDS011;22752;51.960;5.886;2023-09-19T07:36:51;10.98;;;2.83;;
36799;SDS011;22752;51.960;5.886;2023-09-19T07:39:16;14.70;;;3.22;;
36799;SDS011;22752;51.960;5.886;2023-09-19T07:41:42;11.43;;;2.70;;
36799;SDS011;22752;51.960;5.886;2023-09-19T07:44:08;11.98;;;3.20;;
36799;SDS011;22752;51.960;5.886;2023-09-19T07:46:35;11.23;;;2.45;;
36799;SDS011;22752;51.960;5.886;2023-09-19T07:49:01;13.35;;;3.10;;
36799;SDS011;22752;51.960;5.886;2023-09-19T07:51:26;14.48;;;3.13;;
36799;SDS011;22752;51.960;5.886;2023-09-19T07:53:52;14.32;;;3.25;;
36799;SDS011;22752;51.960;5.886;2023-09-19T07:56:20;14.52;;;3.15;;
36799;SDS011;22752;51.960;5.886;2023-09-19T07:58:46;14.30;;;2.85;;
36799;SDS011;22752;51.960;5.886;2023-09-19T08:01:12;14.38;;;3.35;;
36799;SDS011;22752;51.960;5.886;2023-09-19T08:03:39;10.40;;;3.00;;
36799;SDS011;22752;51.960;5.886;2023-09-19T08:06:08;11.02;;;2.70;;
36799;SDS011;22752;51.960;5.886;2023-09-19T08:08:35;12.15;;;2.72;;
36799;SDS011;22752;51.960;5.886;2023-09-19T08:11:02;14.95;;;3.40;;
36799;SDS011;22752;51.960;5.886;2023-09-19T08:13:36;18.17;;;3.40;;
36799;SDS011;22752;51.960;5.886;2023-09-19T08:16:03;14.68;;;3.28;;
36799;SDS011;22752;51.960;5.886;2023-09-19T08:18:29;12.80;;;3.22;;
36799;SDS011;22752;51.960;5.886;2023-09-19T08:20:55;8.88;;;2.50;;
36799;SDS011;22752;51.960;5.886;2023-09-19T08:23:23;13.23;;;2.97;;
36799;SDS011;22752;51.960;5.886;2023-09-19T08:25:50;13.98;;;3.17;;
36799;SDS011;22752;51.960;5.886;2023-09-19T08:28:20;17.70;;;3.50;;
36799;SDS011;22752;51.960;5.886;2023-09-19T08:30:49;17.88;;;3.10;;
36799;SDS011;22752;51.960;5.886;2023-09-19T08:33:16;13.05;;;3.20;;
36799;SDS011;22752;51.960;5.886;2023-09-19T08:35:42;15.45;;;3.47;;
36799;SDS011;22752;51.960;5.886;2023-09-19T08:38:08;17.05;;;3.40;;
36799;SDS011;22752;51.960;5.886;2023-09-19T08:40:38;14.70;;;3.40;;
36799;SDS011;22752;51.960;5.886;2023-09-19T08:43:08;11.25;;;3.17;;
36799;SDS011;22752;51.960;5.886;2023-09-19T08:45:34;16.60;;;3.55;;
36799;SDS011;22752;51.960;5.886;2023-09-19T08:54:16;12.85;;;2.90;;
36799;SDS011;22752;51.960;5.886;2023-09-19T08:56:16;11.48;;;3.00;;
36799;SDS011;22752;51.960;5.886;2023-09-19T08:58:48;16.23;;;3.47;;
36799;SDS011;22752;51.960;5.886;2023-09-19T09:01:18;20.58;;;3.88;;
36799;SDS011;22752;51.960;5.886;2023-09-19T09:03:49;13.27;;;3.05;;
36799;SDS011;22752;51.960;5.886;2023-09-19T09:06:17;12.93;;;3.45;;
36799;SDS011;22752;51.960;5.886;2023-09-19T09:08:45;8.32;;;2.40;;
36799;SDS011;22752;51.960;5.886;2023-09-19T09:11:12;9.02;;;3.05;;
36799;SDS011;22752;51.960;5.886;2023-09-19T09:13:41;11.18;;;3.08;;
36799;SDS011;22752;51.960;5.886;2023-09-19T09:16:11;10.32;;;2.78;;
36799;SDS011;22752;51.960;5.886;2023-09-19T09:18:38;13.93;;;3.70;;
36799;SDS011;22752;51.960;5.886;2023-09-19T09:21:05;9.88;;;2.90;;
36799;SDS011;22752;51.960;5.886;2023-09-19T09:23:31;13.07;;;3.03;;
36799;SDS011;22752;51.960;5.886;2023-09-19T09:25:58;13.43;;;3.05;;
36799;SDS011;22752;51.960;5.886;2023-09-19T09:28:28;14.68;;;3.17;;
36799;SDS011;22752;51.960;5.886;2023-09-19T09:30:55;13.07;;;3.40;;
36799;SDS011;22752;51.960;5.886;2023-09-19T09:33:24;11.20;;;2.70;;
36799;SDS011;22752;51.960;5.886;2023-09-19T09:35:51;12.45;;;3.33;;
36799;SDS011;22752;51.960;5.886;2023-09-19T09:38:22;12.95;;;2.78;;
36799;SDS011;22752;51.960;5.886;2023-09-19T09:40:58;13.43;;;2.95;;
36799;SDS011;22752;51.960;5.886;2023-09-19T09:43:35;9.80;;;2.78;;
36799;SDS011;22752;51.960;5.886;2023-09-19T09:46:12;12.20;;;3.08;;
36799;SDS011;22752;51.960;5.886;2023-09-19T09:48:56;11.85;;;2.75;;
36799;SDS011;22752;51.960;5.886;2023-09-19T09:51:49;14.27;;;3.00;;
36799;SDS011;22752;51.960;5.886;2023-09-19T09:54:22;12.55;;;2.80;;
36799;SDS011;22752;51.960;5.886;2023-09-19T09:56:55;14.35;;;2.90;;
36799;SDS011;22752;51.960;5.886;2023-09-19T10:02:28;16.80;;;3.50;;
36799;SDS011;22752;51.960;5.886;2023-09-19T10:04:55;9.77;;;2.75;;
36799;SDS011;22752;51.960;5.886;2023-09-19T10:07:25;12.98;;;3.35;;
36799;SDS011;22752;51.960;5.886;2023-09-19T10:09:52;13.07;;;3.03;;
36799;SDS011;22752;51.960;5.886;2023-09-19T10:12:24;11.23;;;2.97;;
36799;SDS011;22752;51.960;5.886;2023-09-19T10:14:53;11.13;;;3.30;;
36799;SDS011;22752;51.960;5.886;2023-09-19T10:17:23;12.73;;;2.95;;
36799;SDS011;22752;51.960;5.886;2023-09-19T10:19:55;10.00;;;2.42;;
36799;SDS011;22752;51.960;5.886;2023-09-19T10:22:24;11.07;;;2.90;;
36799;SDS011;22752;51.960;5.886;2023-09-19T10:24:53;12.52;;;2.75;;
36799;SDS011;22752;51.960;5.886;2023-09-19T10:27:20;15.23;;;3.20;;
36799;SDS011;22752;51.960;5.886;2023-09-19T10:29:48;15.82;;;3.20;;
36799;SDS011;22752;51.960;5.886;2023-09-19T10:32:19;12.25;;;2.92;;
36799;SDS011;22752;51.960;5.886;2023-09-19T10:34:47;12.52;;;2.90;;
36799;SDS011;22752;51.960;5.886;2023-09-19T10:37:13;11.55;;;2.88;;
36799;SDS011;22752;51.960;5.886;2023-09-19T10:39:41;15.95;;;3.42;;
36799;SDS011;22752;51.960;5.886;2023-09-19T10:42:13;9.55;;;2.38;;
36799;SDS011;22752;51.960;5.886;2023-09-19T10:44:43;9.88;;;2.50;;
36799;SDS011;22752;51.960;5.886;2023-09-19T10:47:12;10.77;;;2.50;;
36799;SDS011;22752;51.960;5.886;2023-09-19T10:49:45;14.68;;;3.05;;
36799;SDS011;22752;51.960;5.886;2023-09-19T10:54:44;7.72;;;2.80;;
36799;SDS011;22752;51.960;5.886;2023-09-19T11:00:05;9.70;;;2.30;;
36799;SDS011;22752;51.960;5.886;2023-09-19T11:05:43;13.00;;;3.13;;
36799;SDS011;22752;51.960;5.886;2023-09-19T11:11:39;12.27;;;3.10;;
36799;SDS011;22752;51.960;5.886;2023-09-19T11:30:52;8.45;;;2.55;;
36799;SDS011;22752;51.960;5.886;2023-09-19T11:46:34;11.77;;;2.53;;
36799;SDS011;22752;51.960;5.886;2023-09-19T11:49:18;12.02;;;2.38;;
36799;SDS011;22752;51.960;5.886;2023-09-19T11:51:51;12.20;;;2.38;;
36799;SDS011;22752;51.960;5.886;2023-09-19T11:54:17;7.63;;;1.95;;
36799;SDS011;22752;51.960;5.886;2023-09-19T11:56:48;11.10;;;2.88;;
36799;SDS011;22752;51.960;5.886;2023-09-19T11:59:29;8.52;;;2.33;;
36799;SDS011;22752;51.960;5.886;2023-09-19T12:02:05;5.72;;;2.00;;
36799;SDS011;22752;51.960;5.886;2023-09-19T12:04:40;9.32;;;2.13;;
36799;SDS011;22752;51.960;5.886;2023-09-19T12:07:08;7.97;;;1.98;;
36799;SDS011;22752;51.960;5.886;2023-09-19T12:09:40;7.72;;;2.40;;
36799;SDS011;22752;51.960;5.886;2023-09-19T12:12:18;6.75;;;2.05;;
36799;SDS011;22752;51.960;5.886;2023-09-19T12:14:48;7.68;;;1.80;;
36799;SDS011;22752;51.960;5.886;2023-09-19T12:17:15;8.60;;;2.22;;
36799;SDS011;22752;51.960;5.886;2023-09-19T12:19:53;8.85;;;2.10;;
36799;SDS011;22752;51.960;5.886;2023-09-19T12:22:20;9.88;;;1.90;;
36799;SDS011;22752;51.960;5.886;2023-09-19T12:24:46;13.35;;;1.90;;
36799;SDS011;22752;51.960;5.886;2023-09-19T12:27:13;8.25;;;2.08;;
36799;SDS011;22752;51.960;5.886;2023-09-19T12:29:45;11.32;;;2.10;;
36799;SDS011;22752;51.960;5.886;2023-09-19T12:32:16;10.52;;;1.95;;
36799;SDS011;22752;51.960;5.886;2023-09-19T12:34:50;5.85;;;1.60;;
36799;SDS011;22752;51.960;5.886;2023-09-19T12:37:17;7.05;;;1.55;;
36799;SDS011;22752;51.960;5.886;2023-09-19T12:39:48;5.75;;;1.70;;
36799;SDS011;22752;51.960;5.886;2023-09-19T12:42:20;7.07;;;1.95;;
36799;SDS011;22752;51.960;5.886;2023-09-19T12:44:48;4.45;;;1.30;;
36799;SDS011;22752;51.960;5.886;2023-09-19T12:47:22;4.50;;;1.48;;
36799;SDS011;22752;51.960;5.886;2023-09-19T12:50:08;5.40;;;1.50;;
36799;SDS011;22752;51.960;5.886;2023-09-19T12:52:47;5.68;;;1.90;;
36799;SDS011;22752;51.960;5.886;2023-09-19T12:57:57;6.13;;;1.50;;
36799;SDS011;22752;51.960;5.886;2023-09-19T13:00:44;6.10;;;1.20;;
36799;SDS011;22752;51.960;5.886;2023-09-19T13:03:11;3.33;;;1.38;;
36799;SDS011;22752;51.960;5.886;2023-09-19T13:05:48;5.63;;;1.73;;
36799;SDS011;22752;51.960;5.886;2023-09-19T13:08:17;7.95;;;1.80;;
36799;SDS011;22752;51.960;5.886;2023-09-19T13:16:09;6.22;;;1.50;;
36799;SDS011;22752;51.960;5.886;2023-09-19T13:18:45;5.15;;;1.42;;
36799;SDS011;22752;51.960;5.886;2023-09-19T13:21:12;4.05;;;1.30;;
36799;SDS011;22752;51.960;5.886;2023-09-19T13:23:51;7.82;;;1.33;;
36799;SDS011;22752;51.960;5.886;2023-09-19T13:26:19;6.70;;;1.50;;
36799;SDS011;22752;51.960;5.886;2023-09-19T13:28:45;4.57;;;1.30;;
36799;SDS011;22752;51.960;5.886;2023-09-19T13:31:13;4.53;;;1.20;;
36799;SDS011;22752;51.960;5.886;2023-09-19T13:33:42;4.32;;;1.40;;
36799;SDS011;22752;51.960;5.886;2023-09-19T13:36:10;3.92;;;1.20;;
36799;SDS011;22752;51.960;5.886;2023-09-19T13:38:37;3.85;;;1.33;;
36799;SDS011;22752;51.960;5.886;2023-09-19T13:41:02;4.68;;;1.48;;
36799;SDS011;22752;51.960;5.886;2023-09-19T13:43:29;3.95;;;1.35;;
36799;SDS011;22752;51.960;5.886;2023-09-19T13:45:55;6.38;;;1.50;;
36799;SDS011;22752;51.960;5.886;2023-09-19T13:48:22;8.73;;;1.55;;
36799;SDS011;22752;51.960;5.886;2023-09-19T13:50:49;4.30;;;1.08;;
36799;SDS011;22752;51.960;5.886;2023-09-19T13:53:15;3.60;;;0.75;;
36799;SDS011;22752;51.960;5.886;2023-09-19T13:55:41;4.70;;;1.30;;
36799;SDS011;22752;51.960;5.886;2023-09-19T13:58:07;4.60;;;1.15;;
36799;SDS011;22752;51.960;5.886;2023-09-19T14:00:36;3.55;;;1.40;;
36799;SDS011;22752;51.960;5.886;2023-09-19T14:03:01;5.13;;;1.20;;
36799;SDS011;22752;51.960;5.886;2023-09-19T14:05:29;6.32;;;1.10;;
36799;SDS011;22752;51.960;5.886;2023-09-19T14:07:55;3.92;;;1.33;;
36799;SDS011;22752;51.960;5.886;2023-09-19T14:10:22;5.07;;;1.10;;
36799;SDS011;22752;51.960;5.886;2023-09-19T14:12:48;3.97;;;1.10;;
36799;SDS011;22752;51.960;5.886;2023-09-19T14:15:13;5.18;;;1.10;;
36799;SDS011;22752;51.960;5.886;2023-09-19T14:17:39;5.57;;;1.50;;
36799;SDS011;22752;51.960;5.886;2023-09-19T14:20:09;9.05;;;1.52;;
36799;SDS011;22752;51.960;5.886;2023-09-19T14:22:36;3.95;;;1.30;;
36799;SDS011;22752;51.960;5.886;2023-09-19T14:25:02;2.65;;;1.20;;
36799;SDS011;22752;51.960;5.886;2023-09-19T14:27:29;3.50;;;1.20;;
36799;SDS011;22752;51.960;5.886;2023-09-19T14:29:55;3.45;;;1.00;;
36799;SDS011;22752;51.960;5.886;2023-09-19T14:32:22;4.35;;;1.35;;
36799;SDS011;22752;51.960;5.886;2023-09-19T14:34:48;2.85;;;1.20;;
36799;SDS011;22752;51.960;5.886;2023-09-19T14:37:14;5.82;;;1.60;;
36799;SDS011;22752;51.960;5.886;2023-09-19T14:39:43;4.90;;;1.10;;
36799;SDS011;22752;51.960;5.886;2023-09-19T14:42:11;5.35;;;1.40;;
36799;SDS011;22752;51.960;5.886;2023-09-19T14:44:39;7.20;;;1.33;;
36799;SDS011;22752;51.960;5.886;2023-09-19T14:47:05;5.07;;;1.27;;
36799;SDS011;22752;51.960;5.886;2023-09-19T14:49:35;4.78;;;1.60;;
36799;SDS011;22752;51.960;5.886;2023-09-19T14:52:04;4.55;;;1.38;;
36799;SDS011;22752;51.960;5.886;2023-09-19T14:54:34;7.45;;;1.50;;
36799;SDS011;22752;51.960;5.886;2023-09-19T14:57:02;6.85;;;1.20;;
36799;SDS011;22752;51.960;5.886;2023-09-19T14:59:33;6.32;;;1.55;;
36799;SDS011;22752;51.960;5.886;2023-09-19T15:02:06;5.35;;;1.52;;
36799;SDS011;22752;51.960;5.886;2023-09-19T15:04:32;7.30;;;1.80;;
36799;SDS011;22752;51.960;5.886;2023-09-19T15:06:58;6.22;;;1.85;;
36799;SDS011;22752;51.960;5.886;2023-09-19T15:09:24;4.00;;;1.73;;
36799;SDS011;22752;51.960;5.886;2023-09-19T15:11:54;4.97;;;1.50;;
36799;SDS011;22752;51.960;5.886;2023-09-19T15:14:23;3.05;;;1.30;;
36799;SDS011;22752;51.960;5.886;2023-09-19T15:16:52;3.60;;;1.60;;
36799;SDS011;22752;51.960;5.886;2023-09-19T15:19:18;5.93;;;1.40;;
36799;SDS011;22752;51.960;5.886;2023-09-19T15:21:44;4.60;;;1.60;;
36799;SDS011;22752;51.960;5.886;2023-09-19T15:24:09;8.05;;;1.90;;
36799;SDS011;22752;51.960;5.886;2023-09-19T15:26:35;4.22;;;1.73;;
36799;SDS011;22752;51.960;5.886;2023-09-19T15:29:07;6.65;;;1.50;;
36799;SDS011;22752;51.960;5.886;2023-09-19T15:31:33;8.88;;;1.77;;
36799;SDS011;22752;51.960;5.886;2023-09-19T15:34:01;4.93;;;1.65;;
36799;SDS011;22752;51.960;5.886;2023-09-19T15:36:27;6.72;;;1.70;;
36799;SDS011;22752;51.960;5.886;2023-09-19T15:39:00;5.40;;;1.65;;
36799;SDS011;22752;51.960;5.886;2023-09-19T15:41:31;5.03;;;1.48;;
36799;SDS011;22752;51.960;5.886;2023-09-19T15:43:58;4.72;;;1.80;;
36799;SDS011;22752;51.960;5.886;2023-09-19T15:46:26;8.02;;;1.50;;
36799;SDS011;22752;51.960;5.886;2023-09-19T15:48:55;4.55;;;1.45;;
36799;SDS011;22752;51.960;5.886;2023-09-19T15:51:23;6.30;;;1.73;;
36799;SDS011;22752;51.960;5.886;2023-09-19T15:53:50;5.80;;;1.42;;
36799;SDS011;22752;51.960;5.886;2023-09-19T15:56:18;5.53;;;1.40;;
36799;SDS011;22752;51.960;5.886;2023-09-19T15:58:49;4.57;;;1.42;;
36799;SDS011;22752;51.960;5.886;2023-09-19T16:01:15;4.43;;;1.35;;
36799;SDS011;22752;51.960;5.886;2023-09-19T16:03:48;4.18;;;1.40;;